sensor_id;sensor_type;location;lat;lon;timestamp;P1;durP1;ratioP1;P2;durP2;ratioP2
59876;SDS011;45749;51.140;17.184;2023-07-13T00:00:23;5.72;;;3.55;;
59876;SDS011;45749;51.140;17.184;2023-07-13T00:02:48;5.85;;;3.50;;
59876;SDS011;45749;51.140;17.184;2023-07-13T00:05:14;5.70;;;4.20;;
59876;SDS011;45749;51.140;17.184;2023-07-13T00:07:39;5.78;;;4.50;;
59876;SDS011;45749;51.140;17.184;2023-07-13T00:10:04;6.20;;;3.85;;
59876;SDS011;45749;51.140;17.184;2023-07-13T00:12:33;6.57;;;3.95;;
59876;SDS011;45749;51.140;17.184;2023-07-13T00:15:02;5.03;;;3.85;;
59876;SDS011;45749;51.140;17.184;2023-07-13T00:17:32;4.72;;;2.67;;
59876;SDS011;45749;51.140;17.184;2023-07-13T00:19:58;4.40;;;3.20;;
59876;SDS011;45749;51.140;17.184;2023-07-13T00:22:24;3.58;;;2.70;;
59876;SDS011;45749;51.140;17.184;2023-07-13T00:24:51;4.30;;;3.80;;
59876;SDS011;45749;51.140;17.184;2023-07-13T00:27:17;6.47;;;3.25;;
59876;SDS011;45749;51.140;17.184;2023-07-13T00:29:43;5.18;;;3.50;;
59876;SDS011;45749;51.140;17.184;2023-07-13T00:32:08;4.45;;;3.00;;
59876;SDS011;45749;51.140;17.184;2023-07-13T00:34:34;5.28;;;3.30;;
59876;SDS011;45749;51.140;17.184;2023-07-13T00:37:00;3.88;;;2.97;;
59876;SDS011;45749;51.140;17.184;2023-07-13T00:39:25;4.30;;;3.30;;
59876;SDS011;45749;51.140;17.184;2023-07-13T00:41:51;5.53;;;3.35;;
59876;SDS011;45749;51.140;17.184;2023-07-13T00:44:16;3.70;;;3.13;;
59876;SDS011;45749;51.140;17.184;2023-07-13T00:46:43;5.07;;;3.85;;
59876;SDS011;45749;51.140;17.184;2023-07-13T00:49:10;6.78;;;3.67;;
59876;SDS011;45749;51.140;17.184;2023-07-13T00:51:45;4.45;;;3.13;;
59876;SDS011;45749;51.140;17.184;2023-07-13T00:54:15;4.20;;;3.10;;
59876;SDS011;45749;51.140;17.184;2023-07-13T00:56:44;6.18;;;3.40;;
59876;SDS011;45749;51.140;17.184;2023-07-13T00:59:11;4.45;;;3.40;;
59876;SDS011;45749;51.140;17.184;2023-07-13T01:01:38;5.65;;;3.83;;
59876;SDS011;45749;51.140;17.184;2023-07-13T01:04:04;4.10;;;3.38;;
59876;SDS011;45749;51.140;17.184;2023-07-13T01:06:32;6.00;;;3.80;;
59876;SDS011;45749;51.140;17.184;2023-07-13T01:09:00;6.40;;;3.65;;
59876;SDS011;45749;51.140;17.184;2023-07-13T01:11:26;3.95;;;3.20;;
59876;SDS011;45749;51.140;17.184;2023-07-13T01:13:51;5.10;;;3.80;;
59876;SDS011;45749;51.140;17.184;2023-07-13T01:16:35;9.07;;;3.80;;
59876;SDS011;45749;51.140;17.184;2023-07-13T01:19:03;5.55;;;4.38;;
59876;SDS011;45749;51.140;17.184;2023-07-13T01:21:38;8.95;;;5.70;;
59876;SDS011;45749;51.140;17.184;2023-07-13T01:24:08;12.27;;;5.22;;
59876;SDS011;45749;51.140;17.184;2023-07-13T01:26:34;9.50;;;4.82;;
59876;SDS011;45749;51.140;17.184;2023-07-13T01:28:59;8.90;;;4.93;;
59876;SDS011;45749;51.140;17.184;2023-07-13T01:31:24;7.38;;;4.90;;
59876;SDS011;45749;51.140;17.184;2023-07-13T01:33:49;8.57;;;4.50;;
59876;SDS011;45749;51.140;17.184;2023-07-13T01:36:15;14.32;;;5.05;;
59876;SDS011;45749;51.140;17.184;2023-07-13T01:38:40;6.40;;;4.38;;
59876;SDS011;45749;51.140;17.184;2023-07-13T01:41:05;8.45;;;4.45;;
59876;SDS011;45749;51.140;17.184;2023-07-13T01:43:31;9.10;;;5.10;;
59876;SDS011;45749;51.140;17.184;2023-07-13T01:45:57;8.02;;;3.97;;
59876;SDS011;45749;51.140;17.184;2023-07-13T01:48:22;7.47;;;4.00;;
59876;SDS011;45749;51.140;17.184;2023-07-13T01:50:48;7.70;;;4.40;;
59876;SDS011;45749;51.140;17.184;2023-07-13T01:53:13;7.25;;;4.60;;
59876;SDS011;45749;51.140;17.184;2023-07-13T01:55:38;8.27;;;5.13;;
59876;SDS011;45749;51.140;17.184;2023-07-13T01:58:04;5.22;;;3.83;;
59876;SDS011;45749;51.140;17.184;2023-07-13T02:00:30;3.90;;;3.50;;
59876;SDS011;45749;51.140;17.184;2023-07-13T02:02:56;5.78;;;4.18;;
59876;SDS011;45749;51.140;17.184;2023-07-13T02:05:21;6.93;;;4.70;;
59876;SDS011;45749;51.140;17.184;2023-07-13T02:07:47;6.80;;;4.82;;
59876;SDS011;45749;51.140;17.184;2023-07-13T02:10:12;7.55;;;4.75;;
59876;SDS011;45749;51.140;17.184;2023-07-13T02:12:38;10.40;;;5.35;;
59876;SDS011;45749;51.140;17.184;2023-07-13T02:15:04;8.20;;;4.10;;
59876;SDS011;45749;51.140;17.184;2023-07-13T02:17:30;6.63;;;4.10;;
59876;SDS011;45749;51.140;17.184;2023-07-13T02:19:55;6.07;;;4.35;;
59876;SDS011;45749;51.140;17.184;2023-07-13T02:22:21;7.90;;;5.23;;
59876;SDS011;45749;51.140;17.184;2023-07-13T02:24:47;9.38;;;3.95;;
59876;SDS011;45749;51.140;17.184;2023-07-13T02:27:12;6.97;;;4.50;;
59876;SDS011;45749;51.140;17.184;2023-07-13T02:29:37;9.65;;;5.05;;
59876;SDS011;45749;51.140;17.184;2023-07-13T02:32:03;5.67;;;4.87;;
59876;SDS011;45749;51.140;17.184;2023-07-13T02:34:28;5.68;;;4.72;;
59876;SDS011;45749;51.140;17.184;2023-07-13T02:36:54;6.22;;;4.55;;
59876;SDS011;45749;51.140;17.184;2023-07-13T02:39:19;6.47;;;5.17;;
59876;SDS011;45749;51.140;17.184;2023-07-13T02:41:44;6.68;;;4.75;;
59876;SDS011;45749;51.140;17.184;2023-07-13T02:44:11;6.45;;;4.97;;
59876;SDS011;45749;51.140;17.184;2023-07-13T02:46:38;5.97;;;4.63;;
59876;SDS011;45749;51.140;17.184;2023-07-13T02:49:03;7.22;;;4.20;;
59876;SDS011;45749;51.140;17.184;2023-07-13T02:51:29;7.78;;;4.38;;
59876;SDS011;45749;51.140;17.184;2023-07-13T02:53:54;7.32;;;5.32;;
59876;SDS011;45749;51.140;17.184;2023-07-13T02:56:22;5.57;;;3.92;;
59876;SDS011;45749;51.140;17.184;2023-07-13T02:58:49;8.25;;;4.63;;
59876;SDS011;45749;51.140;17.184;2023-07-13T03:01:14;7.53;;;4.27;;
59876;SDS011;45749;51.140;17.184;2023-07-13T03:03:44;8.02;;;5.40;;
59876;SDS011;45749;51.140;17.184;2023-07-13T03:06:10;5.18;;;4.07;;
59876;SDS011;45749;51.140;17.184;2023-07-13T03:08:36;6.30;;;4.47;;
59876;SDS011;45749;51.140;17.184;2023-07-13T03:11:02;8.27;;;4.75;;
59876;SDS011;45749;51.140;17.184;2023-07-13T03:13:30;6.38;;;4.68;;
59876;SDS011;45749;51.140;17.184;2023-07-13T03:15:55;6.28;;;4.53;;
59876;SDS011;45749;51.140;17.184;2023-07-13T03:18:21;6.63;;;4.40;;
59876;SDS011;45749;51.140;17.184;2023-07-13T03:20:49;6.20;;;4.88;;
59876;SDS011;45749;51.140;17.184;2023-07-13T03:23:15;5.80;;;4.70;;
59876;SDS011;45749;51.140;17.184;2023-07-13T03:25:41;8.27;;;5.18;;
59876;SDS011;45749;51.140;17.184;2023-07-13T03:28:06;6.53;;;4.53;;
59876;SDS011;45749;51.140;17.184;2023-07-13T03:30:32;8.27;;;5.07;;
59876;SDS011;45749;51.140;17.184;2023-07-13T03:32:57;6.45;;;5.85;;
59876;SDS011;45749;51.140;17.184;2023-07-13T03:35:22;8.20;;;5.47;;
59876;SDS011;45749;51.140;17.184;2023-07-13T03:37:47;7.47;;;4.93;;
59876;SDS011;45749;51.140;17.184;2023-07-13T03:40:13;8.00;;;4.90;;
59876;SDS011;45749;51.140;17.184;2023-07-13T03:42:38;5.78;;;4.95;;
59876;SDS011;45749;51.140;17.184;2023-07-13T03:45:04;9.48;;;5.57;;
59876;SDS011;45749;51.140;17.184;2023-07-13T03:47:30;7.28;;;4.88;;
59876;SDS011;45749;51.140;17.184;2023-07-13T03:49:55;8.53;;;5.57;;
59876;SDS011;45749;51.140;17.184;2023-07-13T03:52:20;6.80;;;5.18;;
59876;SDS011;45749;51.140;17.184;2023-07-13T03:54:46;5.50;;;4.43;;
59876;SDS011;45749;51.140;17.184;2023-07-13T03:57:11;7.60;;;5.63;;
59876;SDS011;45749;51.140;17.184;2023-07-13T03:59:36;9.25;;;5.32;;
59876;SDS011;45749;51.140;17.184;2023-07-13T04:02:01;8.33;;;4.63;;
59876;SDS011;45749;51.140;17.184;2023-07-13T04:04:29;8.98;;;5.20;;
59876;SDS011;45749;51.140;17.184;2023-07-13T04:06:56;9.02;;;5.22;;
59876;SDS011;45749;51.140;17.184;2023-07-13T04:09:23;6.30;;;4.80;;
59876;SDS011;45749;51.140;17.184;2023-07-13T04:11:49;6.97;;;4.90;;
59876;SDS011;45749;51.140;17.184;2023-07-13T04:14:14;6.13;;;5.07;;
59876;SDS011;45749;51.140;17.184;2023-07-13T04:16:39;9.47;;;6.67;;
59876;SDS011;45749;51.140;17.184;2023-07-13T04:19:04;5.83;;;4.83;;
59876;SDS011;45749;51.140;17.184;2023-07-13T04:21:30;7.27;;;4.90;;
59876;SDS011;45749;51.140;17.184;2023-07-13T04:23:57;14.98;;;6.82;;
59876;SDS011;45749;51.140;17.184;2023-07-13T04:26:22;6.93;;;5.20;;
59876;SDS011;45749;51.140;17.184;2023-07-13T04:28:49;9.30;;;6.50;;
59876;SDS011;45749;51.140;17.184;2023-07-13T04:31:15;6.28;;;5.25;;
59876;SDS011;45749;51.140;17.184;2023-07-13T04:33:41;8.93;;;5.53;;
59876;SDS011;45749;51.140;17.184;2023-07-13T04:36:08;7.78;;;5.68;;
59876;SDS011;45749;51.140;17.184;2023-07-13T04:38:34;9.43;;;5.53;;
59876;SDS011;45749;51.140;17.184;2023-07-13T04:41:01;6.55;;;4.93;;
59876;SDS011;45749;51.140;17.184;2023-07-13T04:43:28;5.60;;;3.47;;
59876;SDS011;45749;51.140;17.184;2023-07-13T04:45:55;5.72;;;3.75;;
59876;SDS011;45749;51.140;17.184;2023-07-13T04:48:21;6.47;;;3.58;;
59876;SDS011;45749;51.140;17.184;2023-07-13T04:50:47;8.93;;;3.58;;
59876;SDS011;45749;51.140;17.184;2023-07-13T04:53:13;3.95;;;2.50;;
59876;SDS011;45749;51.140;17.184;2023-07-13T04:55:38;8.35;;;3.95;;
59876;SDS011;45749;51.140;17.184;2023-07-13T04:58:04;4.43;;;2.55;;
59876;SDS011;45749;51.140;17.184;2023-07-13T05:00:30;7.93;;;2.90;;
59876;SDS011;45749;51.140;17.184;2023-07-13T05:02:56;5.97;;;2.42;;
59876;SDS011;45749;51.140;17.184;2023-07-13T05:05:23;3.92;;;2.10;;
59876;SDS011;45749;51.140;17.184;2023-07-13T05:07:49;4.13;;;2.05;;
59876;SDS011;45749;51.140;17.184;2023-07-13T05:10:15;6.50;;;2.23;;
59876;SDS011;45749;51.140;17.184;2023-07-13T05:12:41;4.18;;;2.30;;
59876;SDS011;45749;51.140;17.184;2023-07-13T05:15:06;5.72;;;2.70;;
59876;SDS011;45749;51.140;17.184;2023-07-13T05:17:32;3.28;;;2.10;;
59876;SDS011;45749;51.140;17.184;2023-07-13T05:19:58;3.78;;;2.33;;
59876;SDS011;45749;51.140;17.184;2023-07-13T05:22:23;7.30;;;2.35;;
59876;SDS011;45749;51.140;17.184;2023-07-13T05:24:48;4.45;;;2.05;;
59876;SDS011;45749;51.140;17.184;2023-07-13T05:27:14;5.10;;;2.22;;
59876;SDS011;45749;51.140;17.184;2023-07-13T05:29:39;4.25;;;2.15;;
59876;SDS011;45749;51.140;17.184;2023-07-13T05:32:04;4.20;;;1.70;;
59876;SDS011;45749;51.140;17.184;2023-07-13T05:34:30;6.13;;;2.33;;
59876;SDS011;45749;51.140;17.184;2023-07-13T05:36:55;4.03;;;2.47;;
59876;SDS011;45749;51.140;17.184;2023-07-13T05:39:21;4.57;;;1.92;;
59876;SDS011;45749;51.140;17.184;2023-07-13T05:41:46;6.68;;;2.50;;
59876;SDS011;45749;51.140;17.184;2023-07-13T05:44:12;3.17;;;1.80;;
59876;SDS011;45749;51.140;17.184;2023-07-13T05:46:37;2.58;;;2.03;;
59876;SDS011;45749;51.140;17.184;2023-07-13T05:49:02;4.18;;;1.60;;
59876;SDS011;45749;51.140;17.184;2023-07-13T05:51:28;4.40;;;1.65;;
59876;SDS011;45749;51.140;17.184;2023-07-13T05:53:54;2.65;;;1.83;;
59876;SDS011;45749;51.140;17.184;2023-07-13T05:56:19;7.43;;;2.55;;
59876;SDS011;45749;51.140;17.184;2023-07-13T05:58:45;6.18;;;2.92;;
59876;SDS011;45749;51.140;17.184;2023-07-13T06:01:10;4.80;;;3.03;;
59876;SDS011;45749;51.140;17.184;2023-07-13T06:03:38;5.75;;;2.80;;
59876;SDS011;45749;51.140;17.184;2023-07-13T06:06:04;5.72;;;2.50;;
59876;SDS011;45749;51.140;17.184;2023-07-13T06:08:30;4.47;;;2.30;;
59876;SDS011;45749;51.140;17.184;2023-07-13T06:11:07;3.92;;;1.92;;
59876;SDS011;45749;51.140;17.184;2023-07-13T06:13:34;4.07;;;1.80;;
59876;SDS011;45749;51.140;17.184;2023-07-13T06:16:01;2.30;;;1.30;;
59876;SDS011;45749;51.140;17.184;2023-07-13T06:18:29;3.55;;;1.60;;
59876;SDS011;45749;51.140;17.184;2023-07-13T06:20:55;3.65;;;1.45;;
59876;SDS011;45749;51.140;17.184;2023-07-13T06:23:20;3.13;;;1.37;;
59876;SDS011;45749;51.140;17.184;2023-07-13T06:25:46;3.38;;;1.77;;
59876;SDS011;45749;51.140;17.184;2023-07-13T06:28:11;3.22;;;1.38;;
59876;SDS011;45749;51.140;17.184;2023-07-13T06:30:38;4.10;;;1.27;;
59876;SDS011;45749;51.140;17.184;2023-07-13T06:33:04;2.40;;;1.23;;
59876;SDS011;45749;51.140;17.184;2023-07-13T06:35:29;3.72;;;1.45;;
59876;SDS011;45749;51.140;17.184;2023-07-13T06:37:54;1.90;;;1.47;;
59876;SDS011;45749;51.140;17.184;2023-07-13T06:40:20;3.90;;;1.50;;
59876;SDS011;45749;51.140;17.184;2023-07-13T06:42:45;3.73;;;1.37;;
59876;SDS011;45749;51.140;17.184;2023-07-13T06:45:10;4.75;;;1.70;;
59876;SDS011;45749;51.140;17.184;2023-07-13T06:47:35;2.77;;;1.67;;
59876;SDS011;45749;51.140;17.184;2023-07-13T06:50:01;2.80;;;1.70;;
59876;SDS011;45749;51.140;17.184;2023-07-13T06:52:26;2.50;;;1.42;;
59876;SDS011;45749;51.140;17.184;2023-07-13T06:54:51;4.22;;;1.63;;
59876;SDS011;45749;51.140;17.184;2023-07-13T06:57:17;3.53;;;1.60;;
59876;SDS011;45749;51.140;17.184;2023-07-13T06:59:42;2.70;;;1.43;;
59876;SDS011;45749;51.140;17.184;2023-07-13T07:02:08;2.55;;;1.55;;
59876;SDS011;45749;51.140;17.184;2023-07-13T07:04:35;4.20;;;1.73;;
59876;SDS011;45749;51.140;17.184;2023-07-13T07:07:01;3.83;;;1.73;;
59876;SDS011;45749;51.140;17.184;2023-07-13T07:09:26;5.88;;;1.77;;
59876;SDS011;45749;51.140;17.184;2023-07-13T07:11:51;3.70;;;1.20;;
59876;SDS011;45749;51.140;17.184;2023-07-13T07:14:16;3.28;;;1.80;;
59876;SDS011;45749;51.140;17.184;2023-07-13T07:16:42;1.90;;;1.40;;
59876;SDS011;45749;51.140;17.184;2023-07-13T07:19:08;2.97;;;1.90;;
59876;SDS011;45749;51.140;17.184;2023-07-13T07:21:33;3.08;;;1.70;;
59876;SDS011;45749;51.140;17.184;2023-07-13T07:23:58;4.85;;;2.38;;
59876;SDS011;45749;51.140;17.184;2023-07-13T07:26:24;5.43;;;2.22;;
59876;SDS011;45749;51.140;17.184;2023-07-13T07:28:50;8.85;;;2.92;;
59876;SDS011;45749;51.140;17.184;2023-07-13T07:31:15;3.75;;;2.63;;
59876;SDS011;45749;51.140;17.184;2023-07-13T07:33:41;6.10;;;2.50;;
59876;SDS011;45749;51.140;17.184;2023-07-13T07:36:06;3.75;;;2.42;;
59876;SDS011;45749;51.140;17.184;2023-07-13T07:38:31;4.78;;;2.90;;
59876;SDS011;45749;51.140;17.184;2023-07-13T07:40:57;6.53;;;2.60;;
59876;SDS011;45749;51.140;17.184;2023-07-13T07:43:22;4.40;;;2.60;;
59876;SDS011;45749;51.140;17.184;2023-07-13T07:45:48;3.70;;;2.72;;
59876;SDS011;45749;51.140;17.184;2023-07-13T07:48:13;6.30;;;2.92;;
59876;SDS011;45749;51.140;17.184;2023-07-13T07:50:39;5.68;;;2.70;;
59876;SDS011;45749;51.140;17.184;2023-07-13T07:53:05;4.78;;;2.97;;
59876;SDS011;45749;51.140;17.184;2023-07-13T07:55:33;6.47;;;2.60;;
59876;SDS011;45749;51.140;17.184;2023-07-13T07:58:00;3.78;;;2.70;;
59876;SDS011;45749;51.140;17.184;2023-07-13T08:00:25;7.10;;;2.80;;
59876;SDS011;45749;51.140;17.184;2023-07-13T08:02:51;3.42;;;2.58;;
59876;SDS011;45749;51.140;17.184;2023-07-13T08:05:17;5.72;;;2.75;;
59876;SDS011;45749;51.140;17.184;2023-07-13T08:07:43;4.05;;;2.28;;
59876;SDS011;45749;51.140;17.184;2023-07-13T08:10:08;4.60;;;2.85;;
59876;SDS011;45749;51.140;17.184;2023-07-13T08:12:37;4.20;;;2.65;;
59876;SDS011;45749;51.140;17.184;2023-07-13T08:15:04;4.43;;;2.78;;
59876;SDS011;45749;51.140;17.184;2023-07-13T08:17:31;4.55;;;2.38;;
59876;SDS011;45749;51.140;17.184;2023-07-13T08:19:57;6.05;;;2.63;;
59876;SDS011;45749;51.140;17.184;2023-07-13T08:22:22;3.30;;;3.00;;
59876;SDS011;45749;51.140;17.184;2023-07-13T08:24:47;5.88;;;2.88;;
59876;SDS011;45749;51.140;17.184;2023-07-13T08:27:20;6.13;;;2.70;;
59876;SDS011;45749;51.140;17.184;2023-07-13T08:29:47;6.30;;;2.33;;
59876;SDS011;45749;51.140;17.184;2023-07-13T08:32:12;4.65;;;2.22;;
59876;SDS011;45749;51.140;17.184;2023-07-13T08:34:38;4.57;;;2.53;;
59876;SDS011;45749;51.140;17.184;2023-07-13T08:37:04;4.00;;;2.83;;
59876;SDS011;45749;51.140;17.184;2023-07-13T08:39:31;6.95;;;3.25;;
59876;SDS011;45749;51.140;17.184;2023-07-13T08:41:58;6.40;;;2.70;;
59876;SDS011;45749;51.140;17.184;2023-07-13T08:44:36;5.43;;;3.10;;
59876;SDS011;45749;51.140;17.184;2023-07-13T08:47:09;5.90;;;4.30;;
59876;SDS011;45749;51.140;17.184;2023-07-13T08:49:38;5.53;;;3.35;;
59876;SDS011;45749;51.140;17.184;2023-07-13T08:52:09;4.57;;;2.85;;
59876;SDS011;45749;51.140;17.184;2023-07-13T08:54:43;6.43;;;3.60;;
59876;SDS011;45749;51.140;17.184;2023-07-13T08:59:40;7.78;;;4.07;;
59876;SDS011;45749;51.140;17.184;2023-07-13T09:02:17;5.68;;;3.65;;
59876;SDS011;45749;51.140;17.184;2023-07-13T09:04:50;6.53;;;3.30;;
59876;SDS011;45749;51.140;17.184;2023-07-13T09:10:29;4.47;;;2.90;;
59876;SDS011;45749;51.140;17.184;2023-07-13T09:15:31;6.88;;;4.25;;
59876;SDS011;45749;51.140;17.184;2023-07-13T09:18:07;5.90;;;3.90;;
59876;SDS011;45749;51.140;17.184;2023-07-13T09:20:37;6.38;;;4.10;;
59876;SDS011;45749;51.140;17.184;2023-07-13T09:23:14;7.57;;;4.18;;
59876;SDS011;45749;51.140;17.184;2023-07-13T09:25:42;5.07;;;4.43;;
59876;SDS011;45749;51.140;17.184;2023-07-13T09:28:16;5.40;;;3.88;;
59876;SDS011;45749;51.140;17.184;2023-07-13T09:33:27;5.72;;;3.80;;
59876;SDS011;45749;51.140;17.184;2023-07-13T09:35:55;7.22;;;4.30;;
59876;SDS011;45749;51.140;17.184;2023-07-13T09:38:23;5.50;;;3.97;;
59876;SDS011;45749;51.140;17.184;2023-07-13T09:40:57;4.22;;;3.55;;
59876;SDS011;45749;51.140;17.184;2023-07-13T09:43:29;4.57;;;3.60;;
59876;SDS011;45749;51.140;17.184;2023-07-13T09:45:54;6.53;;;3.78;;
59876;SDS011;45749;51.140;17.184;2023-07-13T09:48:20;6.53;;;3.35;;
59876;SDS011;45749;51.140;17.184;2023-07-13T09:50:46;4.70;;;3.70;;
59876;SDS011;45749;51.140;17.184;2023-07-13T09:53:16;6.28;;;3.88;;
59876;SDS011;45749;51.140;17.184;2023-07-13T09:55:44;4.95;;;3.53;;
59876;SDS011;45749;51.140;17.184;2023-07-13T10:00:56;8.15;;;3.63;;
59876;SDS011;45749;51.140;17.184;2023-07-13T10:03:26;6.50;;;3.55;;
59876;SDS011;45749;51.140;17.184;2023-07-13T10:06:06;4.47;;;3.05;;
59876;SDS011;45749;51.140;17.184;2023-07-13T10:08:37;5.15;;;2.80;;
59876;SDS011;45749;51.140;17.184;2023-07-13T10:13:59;5.97;;;3.47;;
59876;SDS011;45749;51.140;17.184;2023-07-13T10:16:34;5.50;;;2.58;;
59876;SDS011;45749;51.140;17.184;2023-07-13T10:19:11;5.53;;;3.42;;
59876;SDS011;45749;51.140;17.184;2023-07-13T10:21:49;6.30;;;3.00;;
59876;SDS011;45749;51.140;17.184;2023-07-13T10:24:23;3.63;;;2.30;;
59876;SDS011;45749;51.140;17.184;2023-07-13T10:26:53;4.85;;;2.65;;
59876;SDS011;45749;51.140;17.184;2023-07-13T10:29:25;4.45;;;2.97;;
59876;SDS011;45749;51.140;17.184;2023-07-13T10:31:53;5.18;;;3.08;;
59876;SDS011;45749;51.140;17.184;2023-07-13T10:34:20;5.20;;;2.78;;
59876;SDS011;45749;51.140;17.184;2023-07-13T10:36:46;3.35;;;2.35;;
59876;SDS011;45749;51.140;17.184;2023-07-13T10:39:23;5.07;;;2.25;;
59876;SDS011;45749;51.140;17.184;2023-07-13T10:41:59;4.05;;;2.90;;
59876;SDS011;45749;51.140;17.184;2023-07-13T10:44:29;4.68;;;2.60;;
59876;SDS011;45749;51.140;17.184;2023-07-13T10:47:04;3.83;;;2.60;;
59876;SDS011;45749;51.140;17.184;2023-07-13T10:49:33;5.40;;;2.72;;
59876;SDS011;45749;51.140;17.184;2023-07-13T10:52:01;2.90;;;2.50;;
59876;SDS011;45749;51.140;17.184;2023-07-13T10:54:30;5.72;;;2.13;;
59876;SDS011;45749;51.140;17.184;2023-07-13T10:59:38;4.15;;;1.90;;
59876;SDS011;45749;51.140;17.184;2023-07-13T11:04:47;4.85;;;3.22;;
59876;SDS011;45749;51.140;17.184;2023-07-13T11:07:19;4.80;;;2.13;;
59876;SDS011;45749;51.140;17.184;2023-07-13T11:09:51;5.00;;;2.28;;
59876;SDS011;45749;51.140;17.184;2023-07-13T11:19:54;3.17;;;1.80;;
59876;SDS011;45749;51.140;17.184;2023-07-13T11:22:43;3.42;;;1.83;;
59876;SDS011;45749;51.140;17.184;2023-07-13T11:25:30;2.10;;;1.30;;
59876;SDS011;45749;51.140;17.184;2023-07-13T11:38:36;3.20;;;1.55;;
59876;SDS011;45749;51.140;17.184;2023-07-13T11:41:05;5.80;;;1.65;;
59876;SDS011;45749;51.140;17.184;2023-07-13T11:43:38;3.58;;;1.20;;
59876;SDS011;45749;51.140;17.184;2023-07-13T11:46:17;3.95;;;1.27;;
59876;SDS011;45749;51.140;17.184;2023-07-13T11:48:46;4.68;;;1.85;;
59876;SDS011;45749;51.140;17.184;2023-07-13T11:51:32;1.67;;;1.20;;
59876;SDS011;45749;51.140;17.184;2023-07-13T11:54:06;1.55;;;1.15;;
59876;SDS011;45749;51.140;17.184;2023-07-13T11:57:01;3.75;;;1.70;;
59876;SDS011;45749;51.140;17.184;2023-07-13T11:59:47;5.43;;;1.77;;
59876;SDS011;45749;51.140;17.184;2023-07-13T12:02:16;3.85;;;1.52;;
59876;SDS011;45749;51.140;17.184;2023-07-13T12:04:51;3.03;;;1.77;;
59876;SDS011;45749;51.140;17.184;2023-07-13T12:07:18;6.70;;;2.20;;
59876;SDS011;45749;51.140;17.184;2023-07-13T12:09:45;2.58;;;1.70;;
59876;SDS011;45749;51.140;17.184;2023-07-13T12:12:12;5.40;;;2.78;;
59876;SDS011;45749;51.140;17.184;2023-07-13T12:14:39;3.10;;;1.90;;
59876;SDS011;45749;51.140;17.184;2023-07-13T12:17:21;1.83;;;1.50;;
59876;SDS011;45749;51.140;17.184;2023-07-13T12:19:48;3.92;;;1.70;;
59876;SDS011;45749;51.140;17.184;2023-07-13T12:22:16;2.53;;;1.73;;
59876;SDS011;45749;51.140;17.184;2023-07-13T12:24:43;3.20;;;1.20;;
59876;SDS011;45749;51.140;17.184;2023-07-13T12:29:49;3.00;;;1.40;;
59876;SDS011;45749;51.140;17.184;2023-07-13T12:32:18;2.50;;;1.42;;
59876;SDS011;45749;51.140;17.184;2023-07-13T12:34:54;3.88;;;1.88;;
59876;SDS011;45749;51.140;17.184;2023-07-13T12:37:43;2.17;;;1.30;;
59876;SDS011;45749;51.140;17.184;2023-07-13T12:40:17;1.10;;;1.00;;
59876;SDS011;45749;51.140;17.184;2023-07-13T12:42:47;3.10;;;1.20;;
59876;SDS011;45749;51.140;17.184;2023-07-13T12:45:18;1.98;;;1.20;;
59876;SDS011;45749;51.140;17.184;2023-07-13T12:47:53;2.17;;;1.30;;
59876;SDS011;45749;51.140;17.184;2023-07-13T12:50:30;2.35;;;1.30;;
59876;SDS011;45749;51.140;17.184;2023-07-13T12:53:04;3.40;;;1.20;;
59876;SDS011;45749;51.140;17.184;2023-07-13T12:58:09;3.65;;;1.33;;
59876;SDS011;45749;51.140;17.184;2023-07-13T13:05:46;3.53;;;1.60;;
59876;SDS011;45749;51.140;17.184;2023-07-13T13:08:12;2.10;;;1.00;;
59876;SDS011;45749;51.140;17.184;2023-07-13T13:10:38;3.03;;;1.50;;
59876;SDS011;45749;51.140;17.184;2023-07-13T13:13:04;4.53;;;1.45;;
59876;SDS011;45749;51.140;17.184;2023-07-13T13:15:29;3.10;;;1.58;;
59876;SDS011;45749;51.140;17.184;2023-07-13T13:17:55;2.08;;;1.25;;
59876;SDS011;45749;51.140;17.184;2023-07-13T13:20:21;2.72;;;1.17;;
59876;SDS011;45749;51.140;17.184;2023-07-13T13:22:47;4.60;;;1.50;;
59876;SDS011;45749;51.140;17.184;2023-07-13T13:25:13;4.63;;;1.67;;
59876;SDS011;45749;51.140;17.184;2023-07-13T13:27:43;2.50;;;1.27;;
59876;SDS011;45749;51.140;17.184;2023-07-13T13:30:13;2.83;;;1.10;;
59876;SDS011;45749;51.140;17.184;2023-07-13T13:32:40;4.28;;;1.30;;
59876;SDS011;45749;51.140;17.184;2023-07-13T13:35:25;4.35;;;1.08;;
59876;SDS011;45749;51.140;17.184;2023-07-13T13:37:51;2.75;;;1.15;;
59876;SDS011;45749;51.140;17.184;2023-07-13T13:40:21;2.65;;;1.20;;
59876;SDS011;45749;51.140;17.184;2023-07-13T13:42:50;4.82;;;1.20;;
59876;SDS011;45749;51.140;17.184;2023-07-13T13:45:16;1.88;;;1.13;;
59876;SDS011;45749;51.140;17.184;2023-07-13T13:47:43;2.28;;;1.20;;
59876;SDS011;45749;51.140;17.184;2023-07-13T13:50:12;2.30;;;1.08;;
59876;SDS011;45749;51.140;17.184;2023-07-13T13:52:40;3.35;;;1.15;;
59876;SDS011;45749;51.140;17.184;2023-07-13T13:55:17;2.47;;;0.95;;
59876;SDS011;45749;51.140;17.184;2023-07-13T13:57:45;3.65;;;1.15;;
59876;SDS011;45749;51.140;17.184;2023-07-13T14:00:11;1.80;;;1.30;;
59876;SDS011;45749;51.140;17.184;2023-07-13T14:02:39;2.50;;;1.08;;
59876;SDS011;45749;51.140;17.184;2023-07-13T14:05:09;3.50;;;0.82;;
59876;SDS011;45749;51.140;17.184;2023-07-13T14:07:37;1.38;;;0.95;;
59876;SDS011;45749;51.140;17.184;2023-07-13T14:10:08;3.33;;;1.38;;
59876;SDS011;45749;51.140;17.184;2023-07-13T14:12:37;1.60;;;1.00;;
59876;SDS011;45749;51.140;17.184;2023-07-13T14:15:03;1.88;;;1.10;;
59876;SDS011;45749;51.140;17.184;2023-07-13T14:17:28;2.65;;;1.13;;
59876;SDS011;45749;51.140;17.184;2023-07-13T14:19:54;7.13;;;1.92;;
59876;SDS011;45749;51.140;17.184;2023-07-13T14:22:23;3.47;;;1.33;;
59876;SDS011;45749;51.140;17.184;2023-07-13T14:24:51;6.13;;;1.50;;
59876;SDS011;45749;51.140;17.184;2023-07-13T14:27:18;3.20;;;1.42;;
59876;SDS011;45749;51.140;17.184;2023-07-13T14:29:43;1.67;;;1.48;;
59876;SDS011;45749;51.140;17.184;2023-07-13T14:32:10;2.55;;;0.90;;
59876;SDS011;45749;51.140;17.184;2023-07-13T14:34:36;1.77;;;0.77;;
59876;SDS011;45749;51.140;17.184;2023-07-13T14:37:02;2.65;;;1.65;;
59876;SDS011;45749;51.140;17.184;2023-07-13T14:39:29;3.65;;;1.15;;
59876;SDS011;45749;51.140;17.184;2023-07-13T14:41:55;1.55;;;1.20;;
59876;SDS011;45749;51.140;17.184;2023-07-13T14:44:23;2.72;;;1.23;;
59876;SDS011;45749;51.140;17.184;2023-07-13T14:46:50;1.77;;;1.02;;
59876;SDS011;45749;51.140;17.184;2023-07-13T14:49:32;1.92;;;1.35;;
59876;SDS011;45749;51.140;17.184;2023-07-13T14:52:08;2.15;;;1.10;;
59876;SDS011;45749;51.140;17.184;2023-07-13T14:54:37;1.25;;;1.00;;
59876;SDS011;45749;51.140;17.184;2023-07-13T14:57:10;1.20;;;0.90;;
59876;SDS011;45749;51.140;17.184;2023-07-13T14:59:36;1.45;;;0.85;;
59876;SDS011;45749;51.140;17.184;2023-07-13T15:02:01;2.88;;;1.00;;
59876;SDS011;45749;51.140;17.184;2023-07-13T15:04:27;1.90;;;0.95;;
59876;SDS011;45749;51.140;17.184;2023-07-13T15:06:58;4.00;;;1.38;;
59876;SDS011;45749;51.140;17.184;2023-07-13T15:09:25;2.95;;;1.20;;
59876;SDS011;45749;51.140;17.184;2023-07-13T15:11:52;2.05;;;1.13;;
59876;SDS011;45749;51.140;17.184;2023-07-13T15:14:19;2.33;;;1.25;;
59876;SDS011;45749;51.140;17.184;2023-07-13T15:16:45;2.15;;;1.27;;
59876;SDS011;45749;51.140;17.184;2023-07-13T15:19:12;1.52;;;1.00;;
59876;SDS011;45749;51.140;17.184;2023-07-13T15:21:37;3.63;;;1.05;;
59876;SDS011;45749;51.140;17.184;2023-07-13T15:24:02;2.97;;;1.20;;
59876;SDS011;45749;51.140;17.184;2023-07-13T15:26:28;2.65;;;1.50;;